createdAt,value
2022-08-20T00:01:09.409Z,10.20
2022-08-20T00:03:57.033Z,9.85
2022-08-20T00:06:49.487Z,9.32
2022-08-20T00:09:38.825Z,9.38
2022-08-20T00:12:28.136Z,10.40
2022-08-20T00:15:22.613Z,10.27
2022-08-20T00:18:12.411Z,10.07
2022-08-20T00:21:02.328Z,10.75
2022-08-20T00:23:52.883Z,10.68
2022-08-20T00:26:52.385Z,11.45
2022-08-20T00:29:41.776Z,12.18
2022-08-20T00:32:32.608Z,11.10
2022-08-20T00:35:23.369Z,11.18
2022-08-20T00:38:12.894Z,13.88
2022-08-20T00:41:03.300Z,14.30
2022-08-20T00:44:11.179Z,15.18
2022-08-20T00:47:01.732Z,16.30
2022-08-20T00:49:52.858Z,20.13
2022-08-20T00:52:43.808Z,19.80
2022-08-20T00:55:39.839Z,20.77
2022-08-20T00:58:29.389Z,22.90
2022-08-20T01:01:18.634Z,23.20
2022-08-20T01:04:08.230Z,23.80
2022-08-20T01:06:57.439Z,20.52
2022-08-20T01:09:58.136Z,20.95
2022-08-20T01:12:48.392Z,23.52
2022-08-20T01:15:43.967Z,21.75
2022-08-20T01:18:35.087Z,22.13
2022-08-20T01:21:25.876Z,22.55
2022-08-20T01:24:15.696Z,22.60
2022-08-20T01:27:07.029Z,21.55
2022-08-20T01:29:54.446Z,21.08
2022-08-20T01:32:42.212Z,22.58
2022-08-20T01:35:29.847Z,22.52
2022-08-20T01:38:17.586Z,22.17
2022-08-20T01:41:16.771Z,23.45
2022-08-20T01:44:05.823Z,22.83
2022-08-20T01:49:51.648Z,21.13
2022-08-20T01:52:41.899Z,20.90
2022-08-20T01:55:29.518Z,20.00
2022-08-20T01:58:17.014Z,19.88
2022-08-20T02:01:06.523Z,19.40
2022-08-20T02:03:54.356Z,18.20
2022-08-20T02:06:56.706Z,19.48
2022-08-20T02:09:46.019Z,19.58
2022-08-20T02:12:35.230Z,17.80
2022-08-20T02:15:35.193Z,19.27
2022-08-20T02:18:26.990Z,18.80
2022-08-20T02:21:15.304Z,17.92
2022-08-20T02:24:03.456Z,18.25
2022-08-20T02:26:51.229Z,17.42
2022-08-20T02:29:38.970Z,19.05
2022-08-20T02:32:33.616Z,18.77
2022-08-20T02:35:24.535Z,18.80
2022-08-20T02:38:12.351Z,19.20
2022-08-20T02:41:00.335Z,18.98
2022-08-20T02:43:48.187Z,17.55
2022-08-20T02:46:36.600Z,16.95
2022-08-20T02:49:23.747Z,15.82
2022-08-20T02:52:14.334Z,15.55
2022-08-20T02:55:02.028Z,15.20
2022-08-20T02:57:48.908Z,15.95
2022-08-20T03:00:41.286Z,16.35
2022-08-20T03:03:29.580Z,17.08
2022-08-20T03:06:17.367Z,18.52
2022-08-20T03:09:09.736Z,18.42
2022-08-20T03:11:57.316Z,18.60
2022-08-20T03:14:45.314Z,19.02
2022-08-20T03:17:33.175Z,17.05
2022-08-20T03:20:22.342Z,17.23
2022-08-20T03:23:11.628Z,16.90
2022-08-20T03:26:00.713Z,16.85
2022-08-20T03:28:49.349Z,16.15
2022-08-20T03:31:36.828Z,17.73
2022-08-20T03:34:24.395Z,15.55
2022-08-20T03:37:12.068Z,16.17
2022-08-20T03:39:59.993Z,18.13
2022-08-20T03:42:49.002Z,17.17
2022-08-20T03:45:37.396Z,16.17
2022-08-20T03:48:25.559Z,16.95
2022-08-20T03:51:13.199Z,17.05
2022-08-20T03:54:00.925Z,16.20
2022-08-20T03:56:47.972Z,17.35
2022-08-20T03:59:37.036Z,17.85
2022-08-20T04:02:25.354Z,18.42
2022-08-20T04:05:12.960Z,17.33
2022-08-20T04:08:02.918Z,17.67
2022-08-20T04:10:51.685Z,17.38
2022-08-20T04:13:43.421Z,19.27
2022-08-20T04:16:33.630Z,17.95
2022-08-20T04:19:22.211Z,19.00
2022-08-20T04:22:09.485Z,19.60
2022-08-20T04:24:57.201Z,17.88
2022-08-20T04:27:45.552Z,18.80
2022-08-20T04:30:33.027Z,17.30
2022-08-20T04:33:33.282Z,16.90
2022-08-20T04:36:22.290Z,17.23
2022-08-20T04:39:09.843Z,16.42
2022-08-20T04:41:56.887Z,16.33
2022-08-20T04:44:44.018Z,17.00
2022-08-20T04:47:34.702Z,16.85
2022-08-20T04:50:24.605Z,17.02
2022-08-20T04:53:13.483Z,16.70
2022-08-20T04:56:02.192Z,18.50
2022-08-20T04:58:49.996Z,17.35
2022-08-20T05:01:38.880Z,19.33
2022-08-20T05:04:27.877Z,19.17
2022-08-20T05:07:19.110Z,21.38
2022-08-20T05:10:07.029Z,21.25
2022-08-20T05:12:56.987Z,21.92
2022-08-20T05:15:45.780Z,20.95
2022-08-20T05:18:35.484Z,20.95
2022-08-20T05:21:23.661Z,20.98
2022-08-20T05:24:13.053Z,21.88
2022-08-20T05:27:01.371Z,21.05
2022-08-20T05:29:49.419Z,20.73
2022-08-20T05:32:44.448Z,19.70
2022-08-20T05:35:33.789Z,20.75
2022-08-20T05:38:22.839Z,21.15
2022-08-20T05:41:11.799Z,19.30
2022-08-20T05:44:15.626Z,19.75
2022-08-20T05:47:04.381Z,19.17
2022-08-20T05:49:52.423Z,19.52
2022-08-20T05:52:40.505Z,18.00
2022-08-20T05:55:29.133Z,17.63
2022-08-20T05:58:21.022Z,18.90
2022-08-20T06:01:09.062Z,17.13
2022-08-20T06:04:14.232Z,19.10
2022-08-20T06:07:03.847Z,18.55
2022-08-20T06:09:51.067Z,18.70
2022-08-20T06:12:38.416Z,17.75
2022-08-20T06:15:28.140Z,18.05
2022-08-20T06:18:27.785Z,16.55
2022-08-20T06:21:16.399Z,15.80
2022-08-20T06:24:04.380Z,15.35
2022-08-20T06:26:56.966Z,14.20
2022-08-20T06:29:44.596Z,16.30
2022-08-20T06:32:33.875Z,14.00
2022-08-20T06:35:21.296Z,11.88
2022-08-20T06:38:11.347Z,10.75
2022-08-20T06:40:59.567Z,12.00
2022-08-20T06:43:47.365Z,12.88
2022-08-20T06:46:36.488Z,12.50
2022-08-20T06:49:24.870Z,13.63
2022-08-20T06:52:17.343Z,13.68
2022-08-20T06:55:05.755Z,12.95
2022-08-20T06:58:00.345Z,13.20
2022-08-20T07:00:49.315Z,11.75
2022-08-20T07:03:38.570Z,11.68
2022-08-20T07:06:28.310Z,11.63
2022-08-20T07:09:15.888Z,10.63
2022-08-20T07:12:03.126Z,11.05
2022-08-20T07:14:51.204Z,10.10
2022-08-20T07:17:38.906Z,8.85
2022-08-20T07:20:26.591Z,10.27
2022-08-20T07:23:15.343Z,7.50
2022-08-20T07:26:03.718Z,9.10
2022-08-20T07:28:51.896Z,9.90
2022-08-20T07:31:56.822Z,9.57
2022-08-20T07:34:44.805Z,10.07
2022-08-20T07:37:32.666Z,9.95
2022-08-20T07:40:26.056Z,10.45
2022-08-20T07:43:15.788Z,10.57
2022-08-20T07:46:10.116Z,12.68
2022-08-20T07:48:57.660Z,14.23
2022-08-20T07:51:45.792Z,14.52
2022-08-20T07:54:33.396Z,14.27
2022-08-20T07:57:22.470Z,16.00
2022-08-20T08:00:11.682Z,15.18
2022-08-20T08:02:58.657Z,17.42
2022-08-20T08:05:48.266Z,16.95
2022-08-20T08:08:35.940Z,15.13
2022-08-20T08:11:24.603Z,15.30
2022-08-20T08:14:14.856Z,13.50
2022-08-20T08:17:04.948Z,13.10
2022-08-20T08:19:53.400Z,16.02
2022-08-20T08:22:44.284Z,17.23
2022-08-20T08:25:32.755Z,18.00
2022-08-20T08:28:20.959Z,18.13
2022-08-20T08:31:10.278Z,15.95
2022-08-20T08:33:57.412Z,19.40
2022-08-20T08:36:45.913Z,20.85
2022-08-20T08:39:35.103Z,21.95
2022-08-20T08:42:27.503Z,22.27
2022-08-20T08:45:17.634Z,21.38
2022-08-20T08:48:06.921Z,23.80
2022-08-20T08:50:57.757Z,25.55
2022-08-20T08:53:49.299Z,22.88
2022-08-20T08:56:36.928Z,24.85
2022-08-20T08:59:24.794Z,25.95
2022-08-20T09:02:19.088Z,24.35
2022-08-20T09:05:16.364Z,27.63
2022-08-20T09:08:04.240Z,26.05
2022-08-20T09:10:51.819Z,23.88
2022-08-20T09:13:39.502Z,25.13
2022-08-20T09:16:37.377Z,24.92
2022-08-20T09:19:36.605Z,23.73
2022-08-20T09:22:26.952Z,25.40
2022-08-20T09:25:14.175Z,24.67
2022-08-20T09:28:02.759Z,23.33
2022-08-20T09:30:51.628Z,23.10
2022-08-20T09:33:38.896Z,24.02
2022-08-20T09:36:32.359Z,24.67
2022-08-20T09:42:13.076Z,24.27
2022-08-20T09:45:00.665Z,25.88
2022-08-20T09:47:56.520Z,27.55
2022-08-20T09:50:47.384Z,28.40
2022-08-20T09:53:35.530Z,30.38
2022-08-20T09:56:23.253Z,29.23
2022-08-20T09:59:11.935Z,29.52
2022-08-20T10:02:00.009Z,29.17
2022-08-20T10:04:47.610Z,28.88
2022-08-20T10:07:36.202Z,28.83
2022-08-20T10:10:23.625Z,27.80
2022-08-20T10:13:12.807Z,27.55
2022-08-20T10:16:04.398Z,29.25
2022-08-20T10:18:51.972Z,28.45
2022-08-20T10:21:39.863Z,27.65
2022-08-20T10:24:27.136Z,27.73
2022-08-20T10:27:14.923Z,27.40
2022-08-20T10:30:02.468Z,29.10
2022-08-20T10:32:51.567Z,26.42
2022-08-20T10:35:38.756Z,24.60
2022-08-20T10:38:27.217Z,24.58
2022-08-20T10:41:14.845Z,25.42
2022-08-20T10:44:01.980Z,23.65
2022-08-20T10:46:49.292Z,24.88
2022-08-20T10:49:42.502Z,22.20
2022-08-20T10:52:29.878Z,22.90
2022-08-20T10:55:18.259Z,21.83
2022-08-20T10:58:06.112Z,21.30
2022-08-20T11:00:54.069Z,19.73
2022-08-20T11:03:41.367Z,21.83
2022-08-20T11:06:29.927Z,22.55
2022-08-20T11:09:17.217Z,22.52
2022-08-20T11:12:05.135Z,19.65
2022-08-20T11:14:53.235Z,20.73
2022-08-20T11:17:41.892Z,19.92
2022-08-20T11:20:28.831Z,20.23
2022-08-20T11:23:17.919Z,17.85
2022-08-20T11:26:05.939Z,17.70
2022-08-20T11:28:53.531Z,18.35
2022-08-20T11:31:40.491Z,17.50
2022-08-20T11:34:27.960Z,18.05
2022-08-20T11:37:17.691Z,16.08
2022-08-20T11:40:08.629Z,15.45
2022-08-20T11:46:04.116Z,14.15
2022-08-20T11:48:51.729Z,14.45
2022-08-20T11:51:49.108Z,13.48
2022-08-20T11:54:40.513Z,14.18
2022-08-20T11:57:30.832Z,14.80
2022-08-20T12:00:19.380Z,12.85
2022-08-20T12:03:11.808Z,12.75
2022-08-20T12:06:00.120Z,12.15
2022-08-20T12:08:47.624Z,12.98
2022-08-20T12:11:35.415Z,12.35
2022-08-20T12:14:24.215Z,11.38
2022-08-20T12:17:13.757Z,11.70
2022-08-20T12:20:03.791Z,13.02
2022-08-20T12:22:53.046Z,11.90
2022-08-20T12:25:40.516Z,10.85
2022-08-20T12:28:28.743Z,11.05
2022-08-20T12:31:17.767Z,10.40
2022-08-20T12:34:05.112Z,8.88
2022-08-20T12:36:53.078Z,9.68
2022-08-20T12:39:41.856Z,10.32
2022-08-20T12:42:30.447Z,10.55
2022-08-20T12:45:19.110Z,10.32
2022-08-20T12:48:12.566Z,9.25
2022-08-20T12:50:59.999Z,8.48
2022-08-20T12:53:47.228Z,9.55
2022-08-20T12:56:34.702Z,9.65
2022-08-20T12:59:25.952Z,8.77
2022-08-20T13:02:15.770Z,9.00
2022-08-20T13:05:15.220Z,8.40
2022-08-20T13:08:02.479Z,8.20
2022-08-20T13:10:50.065Z,10.48
2022-08-20T13:13:37.746Z,8.02
2022-08-20T13:16:25.252Z,8.60
2022-08-20T13:19:12.479Z,9.38
2022-08-20T13:22:00.931Z,6.97
2022-08-20T13:24:48.276Z,8.05
2022-08-20T13:27:38.510Z,8.63
2022-08-20T13:30:25.760Z,8.13
2022-08-20T13:33:13.090Z,8.23
2022-08-20T13:36:00.893Z,8.63
2022-08-20T13:38:51.917Z,8.43
2022-08-20T13:41:39.104Z,8.45
2022-08-20T13:44:32.756Z,9.93
2022-08-20T13:47:22.332Z,8.73
2022-08-20T13:50:10.901Z,9.32
2022-08-20T13:52:58.648Z,8.32
2022-08-20T13:55:48.277Z,5.75
2022-08-20T13:58:35.983Z,6.85
2022-08-20T14:01:23.949Z,7.15
2022-08-20T14:04:11.663Z,7.22
2022-08-20T14:06:58.821Z,7.18
2022-08-20T14:09:46.984Z,7.47
2022-08-20T14:12:37.144Z,7.03
2022-08-20T14:15:26.243Z,8.80
2022-08-20T14:18:14.968Z,8.68
2022-08-20T14:21:03.243Z,7.95
2022-08-20T14:23:50.520Z,9.15
2022-08-20T14:26:38.215Z,8.05
2022-08-20T14:29:27.103Z,7.97
2022-08-20T14:35:06.814Z,7.85
2022-08-20T14:37:56.602Z,7.88
2022-08-20T14:40:44.296Z,7.22
2022-08-20T14:43:31.532Z,7.78
2022-08-20T14:46:20.401Z,9.20
2022-08-20T14:49:07.822Z,9.18
2022-08-20T14:51:55.519Z,7.35
2022-08-20T14:54:43.217Z,8.20
2022-08-20T14:57:30.988Z,8.18
2022-08-20T15:00:19.480Z,7.95
2022-08-20T15:03:07.927Z,7.93
2022-08-20T15:05:55.743Z,8.73
2022-08-20T15:08:43.320Z,7.95
2022-08-20T15:11:34.483Z,8.25
2022-08-20T15:14:21.959Z,8.43
2022-08-20T15:17:11.834Z,8.57
2022-08-20T15:20:02.896Z,9.02
2022-08-20T15:22:50.664Z,8.23
2022-08-20T15:25:38.946Z,7.72
2022-08-20T15:28:26.111Z,8.65
2022-08-20T15:31:13.831Z,8.60
2022-08-20T15:34:01.450Z,8.55
2022-08-20T15:36:50.183Z,9.70
2022-08-20T15:39:38.788Z,9.20
2022-08-20T15:42:26.072Z,10.25
2022-08-20T15:45:13.920Z,10.57
2022-08-20T15:48:11.957Z,11.30
2022-08-20T15:51:15.808Z,10.63
2022-08-20T15:54:07.483Z,10.88
2022-08-20T15:57:00.404Z,11.55
2022-08-20T16:00:02.331Z,11.27
2022-08-20T16:03:00.337Z,10.40
2022-08-20T16:05:52.009Z,9.68
2022-08-20T16:08:46.236Z,8.20
2022-08-20T16:14:23.316Z,6.78
2022-08-20T16:17:12.915Z,6.47
2022-08-20T16:20:05.839Z,6.30
2022-08-20T16:22:53.535Z,6.18
2022-08-20T16:25:50.518Z,6.55
2022-08-20T16:28:42.965Z,6.28
2022-08-20T16:31:33.199Z,6.40
2022-08-20T16:34:34.367Z,5.95
2022-08-20T16:37:25.321Z,5.78
2022-08-20T16:40:20.803Z,6.30
2022-08-20T16:43:09.500Z,5.72
2022-08-20T16:46:01.985Z,6.07
2022-08-20T16:48:56.331Z,6.63
2022-08-20T16:51:51.706Z,5.85
2022-08-20T16:54:43.894Z,6.22
2022-08-20T16:57:31.830Z,7.15
2022-08-20T17:00:23.062Z,6.75
2022-08-20T17:03:11.800Z,5.97
2022-08-20T17:06:01.570Z,5.93
2022-08-20T17:08:51.383Z,6.80
2022-08-20T17:11:39.884Z,6.68
2022-08-20T17:14:27.613Z,6.88
2022-08-20T17:17:23.071Z,6.70
2022-08-20T17:20:20.090Z,6.85
2022-08-20T17:23:10.823Z,6.45
2022-08-20T17:25:59.155Z,7.38
2022-08-20T17:28:49.878Z,7.85
2022-08-20T17:31:41.060Z,6.95
2022-08-20T17:34:30.107Z,6.32
2022-08-20T17:37:22.498Z,6.00
2022-08-20T17:40:16.616Z,6.32
2022-08-20T17:43:05.172Z,5.93
2022-08-20T17:45:53.469Z,5.95
2022-08-20T17:48:44.227Z,5.97
2022-08-20T17:51:32.931Z,6.50
2022-08-20T17:54:24.330Z,6.05
2022-08-20T17:57:15.647Z,6.47
2022-08-20T18:00:05.417Z,6.45
2022-08-20T18:02:55.189Z,6.40
2022-08-20T18:05:44.413Z,6.40
2022-08-20T18:08:37.240Z,5.82
2022-08-20T18:11:27.207Z,6.13
2022-08-20T18:14:25.691Z,5.47
2022-08-20T18:17:17.723Z,5.85
2022-08-20T18:20:22.979Z,6.82
2022-08-20T18:23:12.528Z,6.80
2022-08-20T18:26:03.835Z,6.03
2022-08-20T18:28:52.847Z,6.43
2022-08-20T18:31:45.694Z,6.30
2022-08-20T18:34:38.046Z,6.30
2022-08-20T18:37:29.314Z,5.88
2022-08-20T18:40:19.874Z,6.63
2022-08-20T18:43:12.735Z,6.57
2022-08-20T18:46:09.446Z,7.38
2022-08-20T18:48:59.979Z,6.57
2022-08-20T18:51:50.931Z,6.72
2022-08-20T18:54:38.808Z,6.68
2022-08-20T18:57:27.230Z,6.88
2022-08-20T19:00:26.436Z,6.15
2022-08-20T19:03:20.294Z,6.32
2022-08-20T19:06:15.027Z,7.05
2022-08-20T19:09:07.014Z,7.00
2022-08-20T19:12:02.540Z,6.53
2022-08-20T19:14:59.114Z,6.53
2022-08-20T19:17:53.538Z,6.93
2022-08-20T19:20:43.063Z,6.88
2022-08-20T19:23:35.394Z,7.10
2022-08-20T19:26:26.269Z,6.90
2022-08-20T19:29:14.600Z,7.20
2022-08-20T19:32:03.380Z,6.78
2022-08-20T19:34:54.903Z,6.70
2022-08-20T19:37:50.632Z,6.53
2022-08-20T19:40:43.524Z,7.40
2022-08-20T19:43:42.664Z,6.97
2022-08-20T19:46:31.221Z,7.03
2022-08-20T19:49:25.339Z,8.00
2022-08-20T19:52:23.463Z,6.93
2022-08-20T19:55:19.443Z,7.20
2022-08-20T19:58:09.464Z,6.57
2022-08-20T20:01:05.111Z,8.32
2022-08-20T20:03:57.436Z,8.48
2022-08-20T20:06:45.794Z,9.18
2022-08-20T20:09:32.963Z,9.75
2022-08-20T20:12:22.807Z,9.88
2022-08-20T20:15:12.464Z,10.80
2022-08-20T20:18:01.015Z,10.73
2022-08-20T20:20:57.427Z,10.27
2022-08-20T20:23:54.075Z,9.88
2022-08-20T20:26:42.712Z,9.95
2022-08-20T20:29:35.058Z,11.02
2022-08-20T20:32:25.916Z,9.77
2022-08-20T20:35:24.566Z,12.02
2022-08-20T20:38:25.224Z,11.10
2022-08-20T20:41:20.148Z,10.43
2022-08-20T20:44:09.392Z,9.75
2022-08-20T20:46:58.575Z,10.88
2022-08-20T20:49:51.767Z,11.02
2022-08-20T20:52:48.956Z,10.43
2022-08-20T20:55:39.100Z,10.77
2022-08-20T20:58:26.039Z,10.90
2022-08-20T21:01:14.424Z,10.73
2022-08-20T21:04:02.295Z,11.85
2022-08-20T21:06:52.607Z,12.05
2022-08-20T21:09:40.583Z,12.50
2022-08-20T21:12:28.547Z,12.88
2022-08-20T21:15:16.120Z,13.23
2022-08-20T21:18:04.991Z,12.60
2022-08-20T21:20:52.868Z,12.82
2022-08-20T21:23:41.819Z,13.00
2022-08-20T21:26:30.029Z,12.27
2022-08-20T21:29:32.286Z,13.85
2022-08-20T21:32:21.416Z,13.23
2022-08-20T21:35:10.167Z,13.07
2022-08-20T21:37:57.379Z,13.63
2022-08-20T21:40:46.675Z,12.88
2022-08-20T21:43:33.970Z,11.27
2022-08-20T21:46:24.850Z,12.43
2022-08-20T21:49:12.418Z,10.73
2022-08-20T21:52:00.007Z,10.95
2022-08-20T21:54:47.220Z,9.48
2022-08-20T21:57:36.128Z,9.43
2022-08-20T22:00:38.275Z,9.23
2022-08-20T22:03:27.277Z,9.77
2022-08-20T22:06:15.929Z,8.85
2022-08-20T22:09:02.922Z,9.15
2022-08-20T22:11:54.172Z,9.10
2022-08-20T22:14:44.060Z,9.60
2022-08-20T22:17:31.033Z,9.35
2022-08-20T22:20:18.665Z,9.27
2022-08-20T22:23:06.631Z,10.02
2022-08-20T22:25:54.101Z,10.02
2022-08-20T22:28:41.177Z,11.85
2022-08-20T22:31:30.606Z,11.27
2022-08-20T22:34:20.276Z,11.30
2022-08-20T22:37:07.259Z,10.93
2022-08-20T22:39:55.052Z,10.85
2022-08-20T22:42:42.465Z,10.98
2022-08-20T22:45:29.466Z,10.90
2022-08-20T22:48:19.511Z,12.57
2022-08-20T22:51:07.419Z,12.50
2022-08-20T22:53:54.739Z,11.80
2022-08-20T22:56:42.635Z,11.35
2022-08-20T22:59:31.077Z,11.95
2022-08-20T23:02:19.631Z,11.98
2022-08-20T23:05:09.383Z,11.82
2022-08-20T23:07:58.479Z,11.02
2022-08-20T23:10:46.352Z,10.18
2022-08-20T23:13:40.738Z,12.07
2022-08-20T23:16:28.283Z,10.88
2022-08-20T23:19:17.775Z,11.35
2022-08-20T23:22:07.793Z,11.18
2022-08-20T23:24:58.519Z,11.18
2022-08-20T23:27:49.216Z,10.98
2022-08-20T23:30:36.834Z,11.32
2022-08-20T23:33:24.369Z,11.35
2022-08-20T23:36:12.140Z,11.63
2022-08-20T23:39:01.128Z,11.55
2022-08-20T23:41:55.098Z,11.90
2022-08-20T23:44:42.912Z,12.95
2022-08-20T23:47:30.677Z,11.27
2022-08-20T23:50:20.362Z,11.75
2022-08-20T23:53:07.824Z,10.95
2022-08-20T23:55:57.512Z,11.63
2022-08-20T23:58:44.767Z,11.10
